Time;durP1;ratioP1;P1;durP2;ratioP2;P2;SDS_P1;SDS_P2;PMS_P1;PMS_P2;Temp;Humidity;BMP_temperature;BMP_pressure;BME280_temperature;BME280_humidity;BME280_pressure;Samples;Min_cycle;Max_cycle;Signal;HPM_P1;HPM_P2
2022/08/06 00:02:59;;;;;;;6.90;5.30;;;;;;;24.22;56.36;100348.02;109139;1267;21993;-78
2022/08/06 00:05:28;;;;;;;5.80;5.30;;;;;;;24.18;56.75;100363.42;109172;1267;21980;-78
2022/08/06 00:08:07;;;;;;;6.30;5.70;;;;;;;24.18;57.01;100379.57;109725;1260;22758;-77
2022/08/06 00:10:36;;;;;;;10.70;5.60;;;;;;;24.17;57.16;100377.08;109984;1263;22738;-77
2022/08/06 00:13:10;;;;;;;6.80;5.50;;;;;;;24.13;57.51;100373.58;109938;1260;21963;-77
2022/08/06 00:15:42;;;;;;;7.20;5.30;;;;;;;24.09;57.73;100369.77;110152;1260;21963;-77
2022/08/06 00:18:31;;;;;;;7.20;5.00;;;;;;;24.07;57.96;100371.80;110398;1254;21956;-77
2022/08/06 00:21:00;;;;;;;5.10;4.60;;;;;;;24.06;58.05;100376.12;110693;1254;22073;-77
2022/08/06 00:23:29;;;;;;;6.70;5.00;;;;;;;24.03;58.19;100377.54;110691;1254;23043;-77
2022/08/06 00:26:18;;;;;;;5.70;4.40;;;;;;;23.95;58.27;100381.69;110669;1253;22285;-78
2022/08/06 00:28:48;;;;;;;5.10;4.50;;;;;;;23.91;58.58;100385.95;110759;1254;21982;-77
2022/08/06 00:31:17;;;;;;;6.50;4.60;;;;;;;23.88;58.72;100394.39;110601;1253;21953;-76
2022/08/06 00:33:47;;;;;;;5.30;4.70;;;;;;;23.83;59.06;100402.23;110535;1254;23046;-77
2022/08/06 00:36:27;;;;;;;5.10;4.60;;;;;;;23.78;59.14;100406.44;110638;1254;21974;-77
2022/08/06 00:39:01;;;;;;;5.40;4.90;;;;;;;23.74;59.35;100409.14;110795;1253;21966;-77
2022/08/06 00:41:37;;;;;;;8.90;5.50;;;;;;;23.70;59.76;100413.58;110720;1254;21968;-76
2022/08/06 00:44:14;;;;;;;5.90;5.20;;;;;;;23.67;59.95;100417.25;110654;1254;21972;-77
2022/08/06 00:46:59;;;;;;;10.80;5.50;;;;;;;23.65;60.13;100415.77;110544;1254;23697;-77
2022/08/06 00:49:28;;;;;;;8.90;5.70;;;;;;;23.62;60.46;100414.22;110645;1254;22510;-77
2022/08/06 00:52:17;;;;;;;7.20;5.60;;;;;;;23.59;60.76;100415.54;110598;1254;23750;-78
2022/08/06 00:54:54;;;;;;;6.50;5.20;;;;;;;23.54;60.84;100411.44;110389;1254;21954;-77
2022/08/06 00:57:24;;;;;;;6.60;5.80;;;;;;;23.48;61.08;100402.10;110713;1253;22715;-77
2022/08/06 00:59:55;;;;;;;6.50;5.90;;;;;;;23.44;61.64;100406.30;110536;1253;22423;-77
2022/08/06 01:02:24;;;;;;;6.20;5.60;;;;;;;23.40;61.98;100410.63;110563;1254;21980;-76
2022/08/06 01:04:54;;;;;;;6.60;6.00;;;;;;;23.37;62.18;100414.95;110696;1254;21959;-76
2022/08/06 01:07:35;;;;;;;8.40;6.10;;;;;;;23.33;62.48;100418.08;110768;1254;23062;-77
2022/08/06 01:10:22;;;;;;;11.50;7.20;;;;;;;23.27;62.71;100415.64;110732;1253;21938;-76
2022/08/06 01:13:10;;;;;;;7.20;6.50;;;;;;;23.21;63.08;100421.48;110616;1254;21965;-76
2022/08/06 01:16:28;;;;;;;8.10;6.20;;;;;;;23.14;63.45;100417.95;110677;1252;21974;-76
2022/08/06 01:19:09;;;;;;;6.60;5.90;;;;;;;23.07;63.74;100420.72;110623;1254;21961;-76
2022/08/06 01:22:47;;;;;;;7.60;6.60;;;;;;;23.02;64.05;100428.60;110617;1254;22471;-77
2022/08/06 01:25:58;;;;;;;7.00;6.10;;;;;;;22.96;64.43;100437.40;109830;1260;21979;-76
2022/08/06 01:28:40;;;;;;;6.90;6.30;;;;;;;22.90;64.68;100447.33;109991;1260;22496;-77
2022/08/06 01:31:16;;;;;;;9.80;7.10;;;;;;;22.86;64.96;100448.50;110187;1260;23689;-78
2022/08/06 01:33:54;;;;;;;7.20;6.50;;;;;;;22.84;65.20;100450.95;110019;1260;23703;-78
2022/08/06 01:36:53;;;;;;;9.60;6.40;;;;;;;22.83;65.32;100451.73;110060;1261;22184;-78
2022/08/06 01:39:26;;;;;;;7.00;6.50;;;;;;;22.78;65.39;100453.39;109949;1260;22266;-77
2022/08/06 01:42:18;;;;;;;9.00;6.40;;;;;;;22.70;65.45;100452.35;109933;1260;21972;-78
2022/08/06 01:45:11;;;;;;;9.70;7.30;;;;;;;22.64;65.68;100463.83;110674;1254;21966;-77
2022/08/06 01:47:45;;;;;;;7.70;7.00;;;;;;;22.60;66.02;100475.45;110598;1254;21957;-78
2022/08/06 01:50:29;;;;;;;8.30;7.00;;;;;;;22.57;66.44;100473.95;110616;1254;23575;-78
2022/08/06 01:53:02;;;;;;;8.70;7.70;;;;;;;22.56;66.40;100467.90;110543;1253;22178;-79
2022/08/06 01:55:41;;;;;;;7.40;6.70;;;;;;;22.55;66.64;100466.97;109975;1260;22045;-77
2022/08/06 01:58:37;;;;;;;7.80;7.00;;;;;;;22.52;67.02;100470.21;110177;1258;21963;-77
2022/08/06 02:01:12;;;;;;;10.00;8.00;;;;;;;22.51;66.98;100480.75;110183;1257;23583;-77
2022/08/06 02:03:51;;;;;;;8.00;7.30;;;;;;;22.49;67.08;100479.90;110543;1256;23040;-76
2022/08/06 02:06:37;;;;;;;8.90;8.00;;;;;;;22.45;67.20;100487.90;109979;1257;23065;-77
2022/08/06 02:09:13;;;;;;;9.90;7.20;;;;;;;22.42;67.49;100496.35;109849;1260;22427;-77
2022/08/06 02:11:59;;;;;;;7.20;6.60;;;;;;;22.39;67.60;100504.83;109896;1260;22063;-77
2022/08/06 02:14:44;;;;;;;10.50;7.20;;;;;;;22.38;67.66;100517.28;110210;1257;24384;-76
2022/08/06 02:17:19;;;;;;;7.50;6.80;;;;;;;22.37;67.71;100527.98;110234;1257;22729;-77
2022/08/06 02:20:10;;;;;;;7.80;7.00;;;;;;;22.35;67.87;100539.52;110258;1258;23074;-78
2022/08/06 02:23:04;;;;;;;12.60;7.00;;;;;;;22.33;67.84;100551.53;110235;1257;22835;-76
2022/08/06 02:25:43;;;;;;;7.00;6.40;;;;;;;22.32;67.85;100564.42;110363;1257;23096;-76
2022/08/06 02:28:26;;;;;;;12.00;7.00;;;;;;;22.34;67.96;100583.73;110430;1254;21972;-76
2022/08/06 02:30:57;;;;;;;16.50;8.30;;;;;;;22.34;67.99;100595.95;110638;1253;23585;-76
2022/08/06 02:33:28;;;;;;;9.40;7.70;;;;;;;22.33;67.97;100593.20;110691;1253;22022;-76
2022/08/06 02:36:29;;;;;;;12.40;8.90;;;;;;;22.29;68.36;100591.49;110606;1253;23028;-76
2022/08/06 02:39:26;;;;;;;14.20;8.60;;;;;;;22.24;68.85;100585.22;110632;1253;23813;-76
2022/08/06 02:42:36;;;;;;;16.00;10.60;;;;;;;22.19;69.44;100582.14;109897;1260;23871;-76
2022/08/06 02:45:45;;;;;;;9.70;8.60;;;;;;;22.16;70.12;100586.61;110078;1259;21995;-76
2022/08/06 02:48:42;;;;;;;9.60;8.60;;;;;;;22.11;70.42;100582.06;110186;1259;23003;-76
2022/08/06 02:51:42;;;;;;;9.10;8.10;;;;;;;22.06;70.81;100580.63;109948;1260;24289;-76
2022/08/06 02:54:56;;;;;;;8.70;7.40;;;;;;;22.01;71.06;100583.54;110033;1259;21976;-75
2022/08/06 02:57:36;;;;;;;8.90;8.10;;;;;;;21.96;71.39;100583.39;110226;1260;23689;-76
2022/08/06 03:00:21;;;;;;;10.60;7.80;;;;;;;21.92;71.68;100575.87;110094;1259;21975;-76
2022/08/06 03:03:01;;;;;;;9.90;8.90;;;;;;;21.89;71.70;100572.74;110062;1259;24368;-76
2022/08/06 03:05:30;;;;;;;9.60;7.90;;;;;;;21.84;71.87;100577.05;110232;1260;23897;-76
2022/08/06 03:08:24;;;;;;;8.40;7.70;;;;;;;21.80;72.26;100583.21;110055;1260;21978;-76
2022/08/06 03:10:55;;;;;;;10.20;7.20;;;;;;;21.77;72.34;100586.54;110006;1259;22120;-77
2022/08/06 03:13:27;;;;;;;8.50;7.30;;;;;;;21.74;72.43;100585.73;109824;1260;22168;-76
2022/08/06 03:16:05;;;;;;;10.70;7.40;;;;;;;21.70;72.60;100587.79;110057;1259;23073;-77
2022/08/06 03:18:54;;;;;;;7.90;7.10;;;;;;;21.64;72.64;100597.91;110170;1253;22025;-76
2022/08/06 03:21:45;;;;;;;9.30;6.90;;;;;;;21.57;72.74;100603.45;110749;1253;22766;-76
2022/08/06 03:24:26;;;;;;;10.70;7.80;;;;;;;21.52;72.95;100613.55;110357;1257;22820;-75
2022/08/06 03:27:00;;;;;;;9.10;7.90;;;;;;;21.49;73.04;100623.48;110156;1257;21962;-76
2022/08/06 03:29:32;;;;;;;8.00;6.70;;;;;;;21.43;72.99;100634.59;110586;1256;22259;-76
2022/08/06 03:32:01;;;;;;;;;;;;;;;21.39;73.10;100647.42;109833;1261;21951;-75
2022/08/06 03:34:52;;;;;;;9.10;7.90;;;;;;;21.27;73.39;100654.95;109848;1260;21990;-75
2022/08/06 03:37:22;;;;;;;9.80;8.40;;;;;;;21.22;73.46;100663.33;109880;1261;21967;-76
2022/08/06 03:40:13;;;;;;;10.00;8.30;;;;;;;21.20;73.69;100666.38;109824;1260;23396;-77
2022/08/06 03:42:47;;;;;;;10.10;8.70;;;;;;;21.20;73.94;100666.84;109918;1260;23811;-77
2022/08/06 03:45:21;;;;;;;11.20;8.30;;;;;;;21.22;74.15;100669.55;109795;1260;21971;-77
2022/08/06 03:48:14;;;;;;;10.00;8.70;;;;;;;21.20;74.21;100664.06;110009;1260;21985;-75
2022/08/06 03:51:13;;;;;;;9.00;8.20;;;;;;;21.17;74.57;100666.76;110193;1257;23108;-76
2022/08/06 03:53:44;;;;;;;7.60;6.40;;;;;;;21.16;74.57;100666.84;110317;1256;23786;-76
2022/08/06 03:56:26;;;;;;;5.60;5.00;;;;;;;21.13;74.50;100666.23;110431;1257;22320;-76
2022/08/06 03:59:04;;;;;;;5.30;4.80;;;;;;;21.07;74.30;100665.90;109513;1261;21989;-75
2022/08/06 04:01:40;;;;;;;5.60;4.50;;;;;;;21.01;74.25;100661.29;108896;1267;22022;-76
2022/08/06 04:04:20;;;;;;;6.50;4.90;;;;;;;20.95;74.17;100661.24;109420;1263;21978;-75
2022/08/06 04:06:57;;;;;;;7.00;6.00;;;;;;;20.90;74.12;100659.34;108892;1270;21956;-75
2022/08/06 04:09:32;;;;;;;5.30;4.20;;;;;;;20.85;74.05;100660.98;108910;1270;23091;-75
2022/08/06 04:12:22;;;;;;;6.50;4.10;;;;;;;20.74;73.61;100657.51;108855;1270;22776;-76
2022/08/06 04:15:14;;;;;;;5.30;4.10;;;;;;;20.57;73.49;100648.42;108822;1270;21984;-75
2022/08/06 04:17:46;;;;;;;4.50;4.10;;;;;;;20.46;73.69;100649.91;109104;1265;21961;-76
2022/08/06 04:20:21;;;;;;;5.00;4.30;;;;;;;20.42;74.42;100659.66;110075;1257;21972;-76
2022/08/06 04:23:10;;;;;;;5.20;4.40;;;;;;;20.41;74.76;100678.58;110318;1257;22975;-75
2022/08/06 04:25:49;;;;;;;5.50;4.50;;;;;;;20.41;74.76;100692.90;110297;1253;23664;-75
2022/08/06 04:28:21;;;;;;;5.90;5.00;;;;;;;20.38;74.86;100702.54;110741;1253;23125;-76
2022/08/06 04:30:59;;;;;;;4.40;4.00;;;;;;;20.35;74.78;100702.38;110225;1257;22072;-76
2022/08/06 04:33:33;;;;;;;5.20;3.70;;;;;;;20.31;75.01;100701.84;110240;1258;22067;-76
2022/08/06 04:36:05;;;;;;;11.90;4.40;;;;;;;20.29;74.97;100700.87;110372;1257;21959;-76
2022/08/06 04:38:52;;;;;;;5.90;3.80;;;;;;;20.23;74.81;100704.61;110454;1256;22005;-75
2022/08/06 04:41:27;;;;;;;6.00;3.90;;;;;;;20.21;75.01;100713.51;110285;1256;23689;-74
2022/08/06 04:43:59;;;;;;;10.20;9.00;;;;;;;20.19;74.90;100721.98;110364;1257;24294;-76
2022/08/06 04:46:32;;;;;;;6.20;4.90;;;;;;;20.16;74.89;100723.79;110328;1257;21983;-76
2022/08/06 04:49:01;;;;;;;7.20;3.60;;;;;;;20.15;74.86;100725.04;110321;1253;23840;-76
2022/08/06 04:51:30;;;;;;;3.80;2.90;;;;;;;20.09;74.47;100721.35;110250;1256;23066;-76
2022/08/06 04:54:19;;;;;;;3.70;2.80;;;;;;;19.99;74.43;100714.52;110247;1256;22909;-76
2022/08/06 04:56:55;;;;;;;5.00;2.80;;;;;;;19.93;74.35;100715.06;110241;1257;22769;-76
2022/08/06 04:59:26;;;;;;;4.50;3.00;;;;;;;19.85;74.14;100715.58;109305;1263;23558;-76
2022/08/06 05:02:15;;;;;;;3.60;2.70;;;;;;;19.77;74.22;100721.91;109581;1263;21984;-75
2022/08/06 05:04:55;;;;;;;3.70;2.60;;;;;;;19.72;74.05;100721.77;109689;1263;22738;-77
2022/08/06 05:07:32;;;;;;;4.30;3.20;;;;;;;19.65;73.93;100712.73;109504;1264;22772;-75
2022/08/06 05:10:26;;;;;;;4.30;2.50;;;;;;;19.56;73.64;100713.15;109959;1259;21970;-75
2022/08/06 05:12:57;;;;;;;4.80;2.40;;;;;;;19.48;73.66;100713.99;110007;1259;21969;-75
2022/08/06 05:15:38;;;;;;;4.80;3.00;;;;;;;19.44;73.51;100714.85;109966;1259;21965;-75
2022/08/06 05:18:21;;;;;;;3.60;2.50;;;;;;;19.38;73.36;100724.05;110313;1254;22744;-75
2022/08/06 05:21:17;;;;;;;6.10;2.30;;;;;;;19.32;73.34;100732.65;110539;1253;21962;-75
2022/08/06 05:23:53;;;;;;;5.20;3.10;;;;;;;19.28;73.69;100739.77;110534;1253;22921;-75
2022/08/06 05:26:25;;;;;;;7.10;4.00;;;;;;;19.29;73.80;100740.71;110609;1253;23675;-76
2022/08/06 05:28:54;;;;;;;6.90;2.90;;;;;;;19.31;73.85;100740.66;110353;1254;22036;-73
2022/08/06 05:31:42;;;;;;;9.60;4.30;;;;;;;19.32;73.78;100744.40;110352;1254;22029;-74
2022/08/06 05:34:15;;;;;;;7.50;3.70;;;;;;;19.30;73.74;100749.81;110500;1253;23718;-72
2022/08/06 05:36:47;;;;;;;5.50;2.50;;;;;;;19.27;73.59;100750.13;110633;1253;21960;-73
2022/08/06 05:39:19;;;;;;;4.70;2.80;;;;;;;19.25;73.47;100759.81;110568;1253;21964;-73
2022/08/06 05:42:08;;;;;;;4.40;2.60;;;;;;;19.21;73.23;100771.98;110556;1253;21973;-73
2022/08/06 05:44:38;;;;;;;5.10;2.20;;;;;;;19.15;73.17;100779.23;110481;1253;22964;-73
2022/08/06 05:47:20;;;;;;;5.20;2.20;;;;;;;19.13;73.21;100787.48;110588;1253;21958;-72
2022/08/06 05:50:06;;;;;;;5.40;2.10;;;;;;;19.10;73.18;100795.89;110574;1253;22310;-73
2022/08/06 05:53:08;;;;;;;6.50;2.80;;;;;;;19.05;73.26;100808.48;110507;1254;23000;-71
2022/08/06 05:55:57;;;;;;;8.00;3.30;;;;;;;19.02;73.33;100818.87;110771;1253;21949;-72
2022/08/06 05:58:39;;;;;;;3.80;2.50;;;;;;;19.01;73.39;100826.54;110667;1253;22038;-73
2022/08/06 06:01:09;;;;;;;;;;;;;;;18.99;73.33;100826.42;110535;1253;21999;-73
2022/08/06 06:03:43;;;;;;;5.70;2.90;;;;;;;18.92;73.71;100826.03;110560;1253;22259;-73
2022/08/06 06:06:18;;;;;;;9.50;3.20;;;;;;;18.89;73.59;100831.73;110403;1253;22024;-73
2022/08/06 06:08:49;;;;;;;6.90;2.90;;;;;;;18.90;73.46;100844.16;110687;1253;23892;-74
2022/08/06 06:11:31;;;;;;;4.60;2.80;;;;;;;18.86;73.35;100855.53;110233;1259;24366;-73
2022/08/06 06:14:37;;;;;;;5.70;2.90;;;;;;;18.84;73.41;100867.16;110068;1257;21998;-74
2022/08/06 06:17:49;;;;;;;6.40;2.40;;;;;;;18.80;73.47;100878.13;110345;1257;24149;-74
2022/08/06 06:21:03;;;;;;;11.90;4.70;;;;;;;18.76;73.60;100876.94;110321;1256;24669;-74
2022/08/06 06:24:08;;;;;;;4.20;3.10;;;;;;;18.73;73.66;100887.81;110251;1257;22971;-72
2022/08/06 06:27:01;;;;;;;5.50;2.00;;;;;;;18.72;73.60;100896.86;110288;1256;22437;-73
2022/08/06 06:30:07;;;;;;;4.50;2.00;;;;;;;18.70;73.51;100908.17;110141;1253;23036;-72
2022/08/06 06:33:17;;;;;;;4.60;2.70;;;;;;;18.70;73.69;100917.64;110248;1257;23679;-75
2022/08/06 06:36:31;;;;;;;4.10;2.80;;;;;;;18.72;73.86;100916.86;110203;1259;23656;-73
2022/08/06 06:39:11;;;;;;;5.20;2.50;;;;;;;18.71;73.83;100924.27;110257;1257;21962;-73
2022/08/06 06:41:56;;;;;;;5.40;2.90;;;;;;;18.73;74.06;100935.98;110159;1257;22085;-72
2022/08/06 06:44:50;;;;;;;3.20;2.20;;;;;;;18.74;73.96;100936.52;110297;1257;22537;-72
2022/08/06 06:48:06;;;;;;;7.10;2.50;;;;;;;18.73;73.92;100938.36;110235;1257;23704;-71
2022/08/06 06:50:45;;;;;;;6.70;3.30;;;;;;;18.71;73.81;100950.79;110469;1250;22152;-75
2022/08/06 06:53:17;;;;;;;5.20;3.90;;;;;;;18.71;74.02;100958.40;110562;1250;23062;-75
2022/08/06 06:55:52;;;;;;;5.90;2.90;;;;;;;18.72;73.90;100968.83;110139;1256;21939;-73
2022/08/06 06:59:01;;;;;;;4.50;2.80;;;;;;;18.71;73.89;100957.83;110234;1256;23125;-72
2022/08/06 07:01:32;;;;;;;11.40;4.00;;;;;;;18.71;73.98;100943.55;109960;1257;23767;-75
2022/08/06 07:04:08;;;;;;;6.80;3.60;;;;;;;18.75;74.32;100947.10;110530;1256;21964;-74
2022/08/06 07:06:40;;;;;;;6.20;3.60;;;;;;;18.82;74.34;100960.65;110222;1256;22399;-73
2022/08/06 07:09:22;;;;;;;5.30;3.30;;;;;;;18.88;74.25;100959.98;110254;1256;22085;-74
2022/08/06 07:12:15;;;;;;;7.40;3.20;;;;;;;18.90;74.19;100954.59;110345;1256;23206;-73
2022/08/06 07:14:51;;;;;;;6.00;2.80;;;;;;;18.93;73.97;100967.98;110344;1256;23023;-73
2022/08/06 07:17:32;;;;;;;3.80;2.90;;;;;;;18.94;73.82;100971.71;110088;1257;21975;-77
2022/08/06 07:20:22;;;;;;;5.80;2.70;;;;;;;18.96;73.69;100985.92;110419;1253;24305;-75
2022/08/06 07:23:02;;;;;;;5.10;2.70;;;;;;;18.96;73.58;100996.09;110712;1252;22278;-75
2022/08/06 07:25:54;;;;;;;2.80;2.30;;;;;;;18.95;73.50;101003.23;110628;1253;22816;-75
2022/08/06 07:28:26;;;;;;;3.30;2.50;;;;;;;18.95;73.36;101001.61;110628;1253;21969;-73
2022/08/06 07:31:00;;;;;;;5.60;3.00;;;;;;;18.95;73.24;100999.33;110597;1253;23634;-73
2022/08/06 07:33:44;;;;;;;4.90;3.10;;;;;;;18.95;73.14;101001.41;110495;1253;23030;-73
2022/08/06 07:36:39;;;;;;;4.80;2.80;;;;;;;18.97;73.36;101015.91;110567;1253;22090;-73
2022/08/06 07:39:26;;;;;;;7.70;3.50;;;;;;;19.02;73.43;101026.48;110450;1254;21959;-73
2022/08/06 07:42:06;;;;;;;6.50;3.40;;;;;;;19.01;73.01;101029.88;110488;1253;22000;-73
2022/08/06 07:44:47;;;;;;;4.00;2.70;;;;;;;18.99;73.02;101034.41;110576;1253;21957;-73
2022/08/06 07:47:33;;;;;;;5.40;2.60;;;;;;;19.01;73.00;101049.98;109858;1259;21982;-72
2022/08/06 07:50:24;;;;;;;5.50;3.10;;;;;;;19.02;72.99;101056.27;110151;1257;23671;-73
2022/08/06 07:52:56;;;;;;;4.40;2.60;;;;;;;19.02;72.84;101040.91;110019;1259;22325;-72
2022/08/06 07:55:27;;;;;;;8.90;3.00;;;;;;;19.06;72.95;101042.35;110227;1257;21974;-73
2022/08/06 07:58:11;;;;;;;6.50;3.80;;;;;;;19.08;72.93;101039.67;109547;1261;21968;-72
2022/08/06 08:00:43;;;;;;;7.50;4.50;;;;;;;19.11;72.90;101042.09;109622;1261;21971;-73
2022/08/06 08:06:28;;;;;;;18.70;11.50;;;;;;;19.20;72.89;101060.88;109782;1258;23719;-72
2022/08/06 08:09:15;;;;;;;12.60;10.00;;;;;;;19.19;72.38;101068.79;108875;1259;23937;-72
2022/08/06 08:11:58;;;;;;;14.60;9.20;;;;;;;19.16;72.16;101074.07;110148;1257;21979;-72
2022/08/06 08:14:50;;;;;;;14.50;8.20;;;;;;;19.16;72.12;101077.91;110248;1257;21980;-76
2022/08/06 08:17:19;;;;;;;5.90;4.30;;;;;;;19.18;71.97;101065.21;110105;1256;23080;-75
2022/08/06 08:20:08;;;;;;;33.30;5.60;;;;;;;19.21;71.86;101059.77;110247;1256;21982;-75
2022/08/06 08:22:45;;;;;;;173.80;18.60;;;;;;;19.23;71.46;101082.63;110029;1256;23587;-75
2022/08/06 08:25:18;;;;;;;12.70;3.60;;;;;;;19.22;71.14;101096.48;110184;1256;21981;-73
2022/08/06 08:28:09;;;;;;;7.70;3.00;;;;;;;19.19;70.87;101085.81;110241;1259;21966;-75
2022/08/06 08:30:42;;;;;;;7.80;3.10;;;;;;;19.15;70.74;101072.58;109475;1261;22941;-72
2022/08/06 08:33:15;;;;;;;8.00;3.00;;;;;;;19.16;70.90;101067.64;109026;1269;22771;-76
2022/08/06 08:35:49;;;;;;;7.60;3.40;;;;;;;19.17;70.79;101081.70;108907;1267;21979;-73
2022/08/06 08:38:32;;;;;;;8.90;4.20;;;;;;;19.14;70.70;101094.46;109009;1267;21987;-76
2022/08/06 08:41:16;;;;;;;4.30;3.00;;;;;;;19.12;70.70;101097.31;109124;1267;23366;-74
2022/08/06 08:44:03;;;;;;;9.30;3.90;;;;;;;19.07;70.65;101097.39;109268;1265;23828;-74
2022/08/06 08:46:41;;;;;;;11.90;6.70;;;;;;;19.03;70.48;101099.41;109418;1264;22045;-73
2022/08/06 08:49:39;;;;;;;10.40;6.80;;;;;;;19.00;70.59;101107.40;109739;1260;22815;-73
2022/08/06 08:52:27;;;;;;;5.30;3.00;;;;;;;18.98;70.61;101110.20;110360;1253;21966;-74
2022/08/06 08:55:06;;;;;;;4.70;2.60;;;;;;;18.95;70.53;101110.44;110604;1253;21968;-74
2022/08/06 08:57:57;;;;;;;6.80;2.60;;;;;;;18.94;70.64;101109.90;110632;1253;23998;-74
2022/08/06 09:00:46;;;;;;;10.80;5.00;;;;;;;18.95;70.68;101109.28;110588;1253;23038;-76
2022/08/06 09:03:22;;;;;;;5.20;3.10;;;;;;;18.98;71.04;101120.59;110484;1253;21975;-76
2022/08/06 09:05:51;;;;;;;5.30;3.20;;;;;;;19.04;71.09;101118.61;110203;1258;21980;-73
2022/08/06 09:08:22;;;;;;;5.10;2.20;;;;;;;19.09;71.05;101120.09;110285;1257;23096;-74
2022/08/06 09:11:11;;;;;;;5.00;2.20;;;;;;;19.08;70.68;101126.02;110101;1257;22027;-73
2022/08/06 09:14:05;;;;;;;6.40;2.60;;;;;;;19.09;70.54;101131.13;110311;1258;22493;-72
2022/08/06 09:16:37;;;;;;;3.60;2.30;;;;;;;19.10;70.26;101136.73;109975;1260;21972;-76
2022/08/06 09:19:18;;;;;;;;;;;;;;;19.10;69.93;101137.77;109378;1263;22024;-77
2022/08/06 09:21:48;;;;;;;4.80;2.50;;;;;;;19.04;69.97;101137.39;109621;1262;23783;-76
2022/08/06 09:24:19;;;;;;;4.30;2.10;;;;;;;19.06;69.78;101138.89;109049;1262;22912;-77
2022/08/06 09:27:19;;;;;;;4.60;2.80;;;;;;;19.10;69.46;101140.83;109750;1263;22008;-78
2022/08/06 09:30:15;;;;;;;6.40;2.60;;;;;;;19.10;69.14;101144.20;109321;1264;23671;-77
2022/08/06 09:33:00;;;;;;;4.60;3.50;;;;;;;19.14;69.11;101144.40;109499;1263;23622;-77
2022/08/06 09:36:07;;;;;;;7.90;3.50;;;;;;;19.20;69.00;101151.70;109820;1262;21974;-77
2022/08/06 09:38:59;;;;;;;5.20;3.70;;;;;;;19.30;68.94;101150.63;109943;1258;23006;-77
2022/08/06 09:41:30;;;;;;;5.60;3.60;;;;;;;19.44;69.09;101147.42;110211;1257;23124;-78
2022/08/06 09:44:09;;;;;;;8.60;4.10;;;;;;;19.63;68.82;101149.61;110217;1258;23665;-77
2022/08/06 09:47:00;;;;;;;6.70;4.60;;;;;;;19.85;68.61;101146.45;110148;1257;21961;-77
2022/08/06 09:49:44;;;;;;;7.00;4.50;;;;;;;20.05;67.95;101149.00;110447;1253;23729;-78
2022/08/06 09:52:28;;;;;;;6.90;4.30;;;;;;;20.26;66.95;101153.34;110401;1254;21994;-79
2022/08/06 09:54:59;;;;;;;6.00;4.50;;;;;;;20.38;66.19;101146.19;110492;1254;21958;-77
2022/08/06 09:57:46;;;;;;;6.80;4.30;;;;;;;20.56;66.12;101150.17;110529;1252;21956;-75
2022/08/06 10:00:27;;;;;;;4.60;4.20;;;;;;;20.78;65.36;101145.20;110592;1251;22073;-76
2022/08/06 10:03:06;;;;;;;7.30;4.60;;;;;;;20.95;64.41;101145.34;110593;1253;21979;-80
2022/08/06 10:06:08;;;;;;;5.20;3.30;;;;;;;21.17;64.20;101145.92;110562;1253;23595;-76
2022/08/06 10:08:40;;;;;;;7.40;4.90;;;;;;;21.57;64.44;101139.48;110584;1253;21971;-76
2022/08/06 10:11:10;;;;;;;5.00;3.20;;;;;;;21.97;62.77;101144.22;110489;1254;23033;-77
2022/08/06 10:13:47;;;;;;;4.90;3.60;;;;;;;22.25;60.60;101142.56;110606;1253;23542;-76
2022/08/06 10:16:29;;;;;;;6.70;4.30;;;;;;;22.52;59.76;101142.34;110581;1251;24438;-76
2022/08/06 10:19:02;;;;;;;6.30;4.10;;;;;;;22.82;59.14;101141.18;110620;1252;22751;-76
2022/08/06 10:21:47;;;;;;;5.90;4.30;;;;;;;23.11;57.62;101150.17;110200;1259;21978;-76
2022/08/06 10:24:20;;;;;;;5.30;3.90;;;;;;;23.31;56.73;101154.59;110180;1259;22552;-75
2022/08/06 10:27:16;;;;;;;4.80;3.90;;;;;;;23.66;56.91;101154.09;110190;1258;23714;-75
2022/08/06 10:29:58;;;;;;;4.50;3.70;;;;;;;23.89;54.88;101153.64;109436;1263;22118;-75
2022/08/06 10:32:41;;;;;;;5.50;5.00;;;;;;;23.85;52.98;101161.06;109439;1263;24364;-75
2022/08/06 10:35:17;;;;;;;7.10;4.20;;;;;;;23.75;53.10;101161.59;109545;1263;23081;-76
2022/08/06 10:37:56;;;;;;;6.10;4.00;;;;;;;23.89;53.13;101163.26;109424;1264;21978;-75
2022/08/06 10:40:27;;;;;;;4.90;4.40;;;;;;;23.96;52.49;101165.29;110128;1257;21969;-76
2022/08/06 10:43:03;;;;;;;9.90;7.30;;;;;;;24.02;52.20;101167.48;110275;1257;23077;-75
2022/08/06 10:45:35;;;;;;;6.30;4.90;;;;;;;24.03;51.53;101170.08;110250;1257;21974;-75
2022/08/06 10:48:18;;;;;;;5.60;4.90;;;;;;;24.06;51.29;101169.50;109701;1260;22002;-75
2022/08/06 10:51:10;;;;;;;6.20;5.40;;;;;;;24.25;51.31;101169.08;110006;1258;21978;-75
2022/08/06 10:53:46;;;;;;;6.10;5.00;;;;;;;24.36;49.92;101173.32;109529;1264;22049;-75
2022/08/06 10:56:35;;;;;;;5.10;4.70;;;;;;;24.25;48.71;101174.06;109271;1263;22043;-77
2022/08/06 10:59:13;;;;;;;6.10;5.10;;;;;;;24.02;48.27;101171.48;109277;1263;23078;-75
2022/08/06 11:02:12;;;;;;;5.90;5.00;;;;;;;23.87;48.66;101174.22;109285;1264;23596;-79
2022/08/06 11:05:11;;;;;;;7.90;6.40;;;;;;;23.72;48.86;101177.26;109538;1263;21977;-75
2022/08/06 11:08:42;;;;;;;6.30;5.40;;;;;;;23.63;49.31;101172.17;109556;1264;21984;-73
2022/08/06 11:11:53;;;;;;;9.80;6.90;;;;;;;23.65;49.74;101169.31;108893;1270;22837;-73
2022/08/06 11:14:39;;;;;;;6.60;6.10;;;;;;;23.70;49.51;101171.50;109831;1261;22050;-73
2022/08/06 11:17:09;;;;;;;6.90;5.40;;;;;;;23.74;49.38;101167.56;109002;1269;23123;-75
2022/08/06 11:19:45;;;;;;;7.20;5.30;;;;;;;23.79;48.97;101172.84;108983;1269;22865;-74
2022/08/06 11:22:35;;;;;;;6.30;5.70;;;;;;;23.70;48.12;101169.51;108992;1267;23539;-74
2022/08/06 11:25:08;;;;;;;8.90;6.00;;;;;;;23.61;47.83;101167.40;109221;1267;22445;-73
2022/08/06 11:27:56;;;;;;;10.10;5.00;;;;;;;23.58;47.82;101164.17;109177;1267;23589;-73
2022/08/06 11:30:49;;;;;;;5.40;4.80;;;;;;;23.57;48.10;101155.15;108634;1273;22030;-73
2022/08/06 11:33:41;;;;;;;7.50;6.80;;;;;;;23.55;48.33;101155.34;108457;1276;22145;-73
2022/08/06 11:36:52;;;;;;;6.30;5.70;;;;;;;23.57;48.12;101154.52;108662;1270;22452;-72
2022/08/06 11:40:05;;;;;;;6.30;5.60;;;;;;;23.48;47.70;101156.79;108622;1275;23257;-76
2022/08/06 11:42:42;;;;;;;6.60;4.90;;;;;;;23.44;48.00;101153.51;108494;1276;22794;-76
2022/08/06 11:45:19;;;;;;;6.00;4.00;;;;;;;23.43;47.45;101153.17;108475;1276;21990;-76
2022/08/06 11:48:12;;;;;;;5.10;4.50;;;;;;;23.33;46.38;101151.52;108718;1264;23606;-75
2022/08/06 11:51:33;;;;;;;8.10;5.10;;;;;;;23.11;45.95;101156.06;109664;1258;23081;-79
2022/08/06 11:54:44;;;;;;;7.10;5.60;;;;;;;22.92;46.25;101149.75;110290;1257;21959;-74
2022/08/06 11:57:15;;;;;;;6.00;5.40;;;;;;;22.91;46.80;101148.17;109301;1263;22026;-74
2022/08/06 12:00:13;;;;;;;5.50;5.00;;;;;;;22.94;46.57;101149.36;109472;1266;22123;-75
2022/08/06 12:02:54;;;;;;;6.10;4.60;;;;;;;22.97;46.80;101147.81;109210;1267;22364;-76
2022/08/06 12:05:24;;;;;;;5.30;4.60;;;;;;;23.06;47.04;101145.37;109292;1267;23103;-74
2022/08/06 12:08:22;;;;;;;5.30;4.80;;;;;;;23.14;46.37;101147.12;109073;1269;21993;-74
2022/08/06 12:11:29;;;;;;;5.50;4.90;;;;;;;23.17;46.39;101151.23;108884;1268;21972;-76
2022/08/06 12:14:38;;;;;;;6.50;5.00;;;;;;;23.21;46.34;101148.86;108850;1270;21978;-75
2022/08/06 12:17:19;;;;;;;5.70;5.00;;;;;;;23.30;46.15;101147.55;108996;1267;21975;-75
2022/08/06 12:19:52;;;;;;;5.50;4.70;;;;;;;23.37;45.92;101146.93;108797;1270;21992;-74
2022/08/06 12:22:36;;;;;;;5.90;5.30;;;;;;;23.40;45.27;101142.52;108720;1271;21997;-74
2022/08/06 12:25:12;;;;;;;5.60;5.10;;;;;;;23.40;45.37;101140.59;108431;1276;22012;-74
2022/08/06 12:27:47;;;;;;;6.10;5.50;;;;;;;23.41;45.21;101143.69;108559;1273;22953;-73
2022/08/06 12:30:26;;;;;;;6.40;5.60;;;;;;;23.37;45.45;101145.48;108659;1273;22425;-75
2022/08/06 12:33:08;;;;;;;9.30;5.50;;;;;;;23.28;45.03;101146.70;108733;1273;23767;-75
2022/08/06 12:36:00;;;;;;;7.90;7.20;;;;;;;23.19;45.24;101141.55;109013;1266;21978;-75